Time;durP1;ratioP1;P1;durP2;ratioP2;P2;SDS_P1;SDS_P2;PMS_P1;PMS_P2;Temp;Humidity;BMP_temperature;BMP_pressure;BME280_temperature;BME280_humidity;BME280_pressure;Samples;Min_cycle;Max_cycle;Signal;HPM_P1;HPM_P2
2023/04/22 00:00:21;;;;;;;;;;;;;;;;;;5092094;28;1997;-40
2023/04/22 00:02:49;;;;;;;;;;;;;;;;;;5092265;28;2183;-40
2023/04/22 00:05:17;;;;;;;;;;;;;;;;;;5092297;28;1918;-49
2023/04/22 00:07:46;;;;;;;;;;;;;;;;;;5091970;28;1956;-40
2023/04/22 00:10:13;;;;;;;;;;;;;;;;;;5092274;28;2137;-40
2023/04/22 00:12:41;;;;;;;;;;;;;;;;;;5091955;28;2036;-40
2023/04/22 00:15:08;;;;;;;;;;;;;;;;;;5092169;28;1823;-40
2023/04/22 00:17:36;;;;;;;;;;;;;;;;;;5092064;28;1813;-40
2023/04/22 00:20:03;;;;;;;;;;;;;;;;;;5092208;28;2075;-40
2023/04/22 00:22:30;;;;;;;;;;;;;;;;;;5092087;28;1829;-40
2023/04/22 00:24:58;;;;;;;;;;;;;;;;;;5091578;28;2011;-40
2023/04/22 00:27:25;;;;;;;;;;;;;;;;;;5092234;28;2125;-41
2023/04/22 00:29:52;;;;;;;;;;;;;;;;;;5091787;28;2061;-40
2023/04/22 00:32:21;;;;;;;;;;;;;;;;;;5092067;28;2036;-59
2023/04/22 00:34:49;;;;;;;;;;;;;;;;;;5092157;28;1988;-49
2023/04/22 00:37:16;;;;;;;;;;;;;;;;;;5091826;28;2168;-40
2023/04/22 00:39:43;;;;;;;;;;;;;;;;;;5091606;28;1984;-47
2023/04/22 00:42:13;;;;;;;;;;;;;;;;;;5091157;28;2037;-41
2023/04/22 00:44:41;;;;;;;;;;;;;;;;;;5091693;28;1975;-40
2023/04/22 00:47:08;;;;;;;;;;;;;;;;;;5096988;28;1957;-42
2023/04/22 00:49:36;;;;;;;;;;;;;;;;;;5112155;28;2011;-55
2023/04/22 00:52:03;;;;;;;;;;;;;;;;;;5093513;28;1982;-57
2023/04/22 00:54:32;;;;;;;;;;;;;;;;;;5093710;28;2137;-55
2023/04/22 00:57:01;;;;;;;;;;;;;;;;;;5090165;28;1802;-46
2023/04/22 00:59:29;;;;;;;;;;;;;;;;;;5091575;28;2051;-59
2023/04/22 01:01:56;;;;;;;;;;;;;;;;;;5091201;28;2081;-53
2023/04/22 01:04:24;;;;;;;;;;;;;;;;;;5091011;28;1925;-48
2023/04/22 01:06:52;;;;;;;;;;;;;;;;;;5091251;28;2037;-41
2023/04/22 01:09:19;;;;;;;;;;;;;;;;;;5091416;28;1974;-41
2023/04/22 01:11:47;;;;;;;;;;;;;;;;;;5090963;28;2023;-40
2023/04/22 01:14:14;;;;;;;;;;;;;;;;;;5090974;28;2000;-54
2023/04/22 01:16:42;;;;;;;;;;;;;;;;;;5091519;28;1771;-40
2023/04/22 01:19:10;;;;;;;;;;;;;;;;;;5091165;28;2166;-45
2023/04/22 01:21:38;;;;;;;;;;;;;;;;;;5091515;28;1828;-52
2023/04/22 01:24:06;;;;;;;;;;;;;;;;;;5072750;28;2214;-58
2023/04/22 01:26:35;;;;;;;;;;;;;;;;;;5090884;28;1919;-41
2023/04/22 01:29:05;;;;;;;;;;;;;;;;;;5091039;28;1893;-40
2023/04/22 01:31:32;;;;;;;;;;;;;;;;;;5106305;28;2030;-42
2023/04/22 01:34:00;;;;;;;;;;;;;;;;;;5111792;28;2167;-41
2023/04/22 01:36:28;;;;;;;;;;;;;;;;;;5111483;28;2050;-40
2023/04/22 01:38:55;;;;;;;;;;;;;;;;;;5111373;28;2138;-41
2023/04/22 01:41:25;;;;;;;;;;;;;;;;;;5092950;28;1773;-42
2023/04/22 01:43:53;;;;;;;;;;;;;;;;;;5092660;28;2071;-41
2023/04/22 01:46:20;;;;;;;;;;;;;;;;;;5092791;28;1800;-41
2023/04/22 01:48:50;;;;;;;;;;;;;;;;;;5090912;28;2160;-41
2023/04/22 01:51:19;;;;;;;;;;;;;;;;;;5090923;28;1973;-42
2023/04/22 01:53:48;;;;;;;;;;;;;;;;;;5072476;28;2190;-42
2023/04/22 01:56:16;;;;;;;;;;;;;;;;;;5090726;28;2157;-40
2023/04/22 01:58:43;;;;;;;;;;;;;;;;;;5074965;28;1894;-45
2023/04/22 02:01:10;;;;;;;;;;;;;;;;;;5094879;28;2310;-43
2023/04/22 02:03:38;;;;;;;;;;;;;;;;;;5076177;28;2121;-41
2023/04/22 02:06:06;;;;;;;;;;;;;;;;;;5076309;28;2107;-45
2023/04/22 02:08:34;;;;;;;;;;;;;;;;;;5094640;28;1894;-41
2023/04/22 02:11:01;;;;;;;;;;;;;;;;;;5076464;28;1784;-41
2023/04/22 02:13:35;;;;;;;;;;;;;;;;;;5094386;28;1808;-41
2023/04/22 02:16:03;;;;;;;;;;;;;;;;;;5094243;28;1933;-40
2023/04/22 02:18:30;;;;;;;;;;;;;;;;;;5094459;28;1985;-41
2023/04/22 02:20:57;;;;;;;;;;;;;;;;;;5075939;28;1948;-46
2023/04/22 02:23:24;;;;;;;;;;;;;;;;;;5076009;28;2014;-41
2023/04/22 02:25:53;;;;;;;;;;;;;;;;;;5093818;28;1976;-41
2023/04/22 02:28:20;;;;;;;;;;;;;;;;;;5075794;28;2303;-45
2023/04/22 02:30:47;;;;;;;;;;;;;;;;;;5094168;28;2059;-42
2023/04/22 02:33:15;;;;;;;;;;;;;;;;;;5093894;28;1834;-41
2023/04/22 02:35:42;;;;;;;;;;;;;;;;;;5094418;28;1778;-41
2023/04/22 02:38:15;;;;;;;;;;;;;;;;;;5075920;28;2033;-42
2023/04/22 02:40:42;;;;;;;;;;;;;;;;;;5094182;28;1981;-41
2023/04/22 02:43:10;;;;;;;;;;;;;;;;;;5075834;28;1921;-41
2023/04/22 02:45:39;;;;;;;;;;;;;;;;;;5074902;28;2357;-41
2023/04/22 02:48:07;;;;;;;;;;;;;;;;;;5093839;28;1897;-41
2023/04/22 02:50:35;;;;;;;;;;;;;;;;;;5075395;28;2053;-41
2023/04/22 02:53:02;;;;;;;;;;;;;;;;;;5093821;28;2282;-53
2023/04/22 02:55:29;;;;;;;;;;;;;;;;;;5093757;28;1768;-43
2023/04/22 02:57:56;;;;;;;;;;;;;;;;;;5093575;28;1998;-44
2023/04/22 03:00:24;;;;;;;;;;;;;;;;;;5093520;28;1892;-56
2023/04/22 03:02:52;;;;;;;;;;;;;;;;;;5075323;28;1667;-41
2023/04/22 03:05:26;;;;;;;;;;;;;;;;;;5093169;28;1999;-41
2023/04/22 03:07:54;;;;;;;;;;;;;;;;;;5075352;28;1901;-40
2023/04/22 03:10:21;;;;;;;;;;;;;;;;;;5092392;28;1962;-44
2023/04/22 03:12:49;;;;;;;;;;;;;;;;;;5093148;28;2146;-41
2023/04/22 03:15:17;;;;;;;;;;;;;;;;;;5075173;28;1928;-49
2023/04/22 03:17:47;;;;;;;;;;;;;;;;;;5093533;28;1865;-54
2023/04/22 03:20:15;;;;;;;;;;;;;;;;;;5091915;28;1835;-53
2023/04/22 03:22:42;;;;;;;;;;;;;;;;;;5093255;28;2181;-41
2023/04/22 03:25:11;;;;;;;;;;;;;;;;;;5092368;28;2047;-42
2023/04/22 03:27:43;;;;;;;;;;;;;;;;;;5074758;28;2160;-40
2023/04/22 03:30:10;;;;;;;;;;;;;;;;;;5075044;28;2253;-41
2023/04/22 03:32:38;;;;;;;;;;;;;;;;;;5092460;28;1971;-41
2023/04/22 03:35:16;;;;;;;;;;;;;;;;;;5075038;28;2028;-39
2023/04/22 03:37:46;;;;;;;;;;;;;;;;;;5074541;28;1979;-49
2023/04/22 03:40:17;;;;;;;;;;;;;;;;;;5074770;28;1888;-41
2023/04/22 03:42:45;;;;;;;;;;;;;;;;;;5074568;28;2209;-42
2023/04/22 03:45:12;;;;;;;;;;;;;;;;;;5074247;28;1938;-42
2023/04/22 03:47:44;;;;;;;;;;;;;;;;;;5082489;28;2131;-42
2023/04/22 03:50:20;;;;;;;;;;;;;;;;;;5074724;28;2077;-40
2023/04/22 03:52:50;;;;;;;;;;;;;;;;;;5075159;28;1937;-43
2023/04/22 03:55:19;;;;;;;;;;;;;;;;;;5074491;28;1968;-41
2023/04/22 03:57:50;;;;;;;;;;;;;;;;;;5074503;28;1961;-41
2023/04/22 04:00:18;;;;;;;;;;;;;;;;;;5074299;28;2037;-49
2023/04/22 04:02:52;;;;;;;;;;;;;;;;;;5074176;28;2027;-41
2023/04/22 04:05:24;;;;;;;;;;;;;;;;;;5073611;28;1943;-44
2023/04/22 04:07:52;;;;;;;;;;;;;;;;;;5092422;28;2031;-41
2023/04/22 04:10:19;;;;;;;;;;;;;;;;;;5074158;28;1793;-42
2023/04/22 04:12:47;;;;;;;;;;;;;;;;;;5074302;28;2116;-42
2023/04/22 04:15:17;;;;;;;;;;;;;;;;;;5074417;28;2136;-41
2023/04/22 04:17:46;;;;;;;;;;;;;;;;;;5074127;28;1989;-45
2023/04/22 04:20:16;;;;;;;;;;;;;;;;;;5073810;28;2104;-43
2023/04/22 04:22:44;;;;;;;;;;;;;;;;;;5074061;28;1549;-43
2023/04/22 04:25:11;;;;;;;;;;;;;;;;;;5073660;28;2034;-42
2023/04/22 04:27:43;;;;;;;;;;;;;;;;;;5074005;28;2153;-47
2023/04/22 04:30:13;;;;;;;;;;;;;;;;;;5074009;28;1934;-42
2023/04/22 04:32:45;;;;;;;;;;;;;;;;;;5073885;28;1826;-43
2023/04/22 04:35:15;;;;;;;;;;;;;;;;;;5073580;28;1958;-58
2023/04/22 04:37:46;;;;;;;;;;;;;;;;;;5073631;28;1979;-60
2023/04/22 04:40:14;;;;;;;;;;;;;;;;;;5073786;28;2010;-41
2023/04/22 04:43:01;;;;;;;;;;;;;;;;;;5073594;28;1992;-42
2023/04/22 04:45:35;;;;;;;;;;;;;;;;;;5073382;28;2418;-45
2023/04/22 04:48:03;;;;;;;;;;;;;;;;;;5087409;28;1991;-41
2023/04/22 04:50:34;;;;;;;;;;;;;;;;;;5094112;28;1877;-42
2023/04/22 04:53:02;;;;;;;;;;;;;;;;;;5093834;28;2050;-42
2023/04/22 04:55:37;;;;;;;;;;;;;;;;;;5111791;28;1982;-42
2023/04/22 04:58:11;;;;;;;;;;;;;;;;;;5094085;28;2030;-42
2023/04/22 05:00:39;;;;;;;;;;;;;;;;;;5093558;28;2145;-41
2023/04/22 05:03:07;;;;;;;;;;;;;;;;;;5093476;28;2192;-50
2023/04/22 05:05:34;;;;;;;;;;;;;;;;;;5093295;28;2004;-41
2023/04/22 05:08:02;;;;;;;;;;;;;;;;;;5093429;28;2001;-43
2023/04/22 05:10:30;;;;;;;;;;;;;;;;;;5111661;28;2096;-41
2023/04/22 05:12:57;;;;;;;;;;;;;;;;;;5111850;28;2075;-41
2023/04/22 05:15:25;;;;;;;;;;;;;;;;;;5093657;28;1993;-42
2023/04/22 05:17:53;;;;;;;;;;;;;;;;;;5093780;28;2060;-42
2023/04/22 05:20:20;;;;;;;;;;;;;;;;;;5093296;28;2068;-61
2023/04/22 05:22:48;;;;;;;;;;;;;;;;;;5093314;28;1852;-41
2023/04/22 05:25:16;;;;;;;;;;;;;;;;;;5093241;28;1919;-44
2023/04/22 05:27:52;;;;;;;;;;;;;;;;;;5093549;28;2059;-55
2023/04/22 05:30:19;;;;;;;;;;;;;;;;;;5093491;28;2025;-43
2023/04/22 05:32:47;;;;;;;;;;;;;;;;;;5094277;28;2022;-64
2023/04/22 05:35:14;;;;;;;;;;;;;;;;;;5115468;28;1986;-39
2023/04/22 05:37:41;;;;;;;;;;;;;;;;;;5097165;28;2260;-42
2023/04/22 05:40:09;;;;;;;;;;;;;;;;;;5115445;28;1963;-41
2023/04/22 05:42:37;;;;;;;;;;;;;;;;;;5111991;28;1936;-42
2023/04/22 05:45:04;;;;;;;;;;;;;;;;;;5095118;28;2008;-45
2023/04/22 05:47:31;;;;;;;;;;;;;;;;;;5104572;28;1874;-40
2023/04/22 05:49:59;;;;;;;;;;;;;;;;;;5097134;28;2066;-41
2023/04/22 05:52:35;;;;;;;;;;;;;;;;;;5097239;28;1968;-41
2023/04/22 05:55:09;;;;;;;;;;;;;;;;;;5097357;28;2019;-41
2023/04/22 05:57:37;;;;;;;;;;;;;;;;;;5115367;28;2179;-41
2023/04/22 06:00:11;;;;;;;;;;;;;;;;;;5096933;28;1938;-62
2023/04/22 06:02:38;;;;;;;;;;;;;;;;;;5115139;28;1973;-52
2023/04/22 06:05:06;;;;;;;;;;;;;;;;;;5096793;28;1923;-59
2023/04/22 06:07:34;;;;;;;;;;;;;;;;;;5115047;28;1782;-40
2023/04/22 06:10:02;;;;;;;;;;;;;;;;;;5115192;28;2065;-41
2023/04/22 06:12:32;;;;;;;;;;;;;;;;;;5096102;28;2076;-41
2023/04/22 06:14:59;;;;;;;;;;;;;;;;;;5096865;28;1903;-41
2023/04/22 06:17:27;;;;;;;;;;;;;;;;;;5096799;28;1927;-41
2023/04/22 06:19:55;;;;;;;;;;;;;;;;;;5096490;28;2114;-44
2023/04/22 06:22:22;;;;;;;;;;;;;;;;;;5092874;28;1854;-42
2023/04/22 06:24:49;;;;;;;;;;;;;;;;;;5076197;28;2049;-43
2023/04/22 06:27:16;;;;;;;;;;;;;;;;;;5076489;28;2194;-44
2023/04/22 06:29:44;;;;;;;;;;;;;;;;;;5094184;28;1917;-41
2023/04/22 06:32:12;;;;;;;;;;;;;;;;;;5089920;28;2072;-40
2023/04/22 06:34:41;;;;;;;;;;;;;;;;;;5114328;28;1523;-41
2023/04/22 06:37:08;;;;;;;;;;;;;;;;;;5095974;28;2062;-41
2023/04/22 06:39:35;;;;;;;;;;;;;;;;;;5092740;28;1997;-41
2023/04/22 06:42:14;;;;;;;;;;;;;;;;;;5075580;28;1925;-41
2023/04/22 06:45:00;;;;;;;;;;;;;;;;;;5092701;28;2007;-41
2023/04/22 06:47:44;;;;;;;;;;;;;;;;;;5086859;28;2023;-42
2023/04/22 06:50:19;;;;;;;;;;;;;;;;;;5095746;28;1890;-43
2023/04/22 06:52:56;;;;;;;;;;;;;;;;;;5095757;28;2081;-43
2023/04/22 06:55:24;;;;;;;;;;;;;;;;;;5095855;28;1924;-43
2023/04/22 06:57:51;;;;;;;;;;;;;;;;;;5114162;28;2131;-41
2023/04/22 07:00:18;;;;;;;;;;;;;;;;;;5095869;28;2008;-40
2023/04/22 07:02:46;;;;;;;;;;;;;;;;;;5095615;28;1887;-43
2023/04/22 07:05:14;;;;;;;;;;;;;;;;;;5095355;28;2053;-41
2023/04/22 07:07:42;;;;;;;;;;;;;;;;;;5095588;28;2215;-41
2023/04/22 07:10:16;;;;;;;;;;;;;;;;;;5095150;28;2062;-39
2023/04/22 07:13:03;;;;;;;;;;;;;;;;;;5114012;28;2115;-42
2023/04/22 07:15:30;;;;;;;;;;;;;;;;;;5113825;28;2304;-41
2023/04/22 07:17:57;;;;;;;;;;;;;;;;;;5113757;28;2159;-40
2023/04/22 07:20:25;;;;;;;;;;;;;;;;;;5113488;28;2017;-40
2023/04/22 07:22:53;;;;;;;;;;;;;;;;;;5113552;28;2020;-41
2023/04/22 07:25:20;;;;;;;;;;;;;;;;;;5113476;28;1933;-50
2023/04/22 07:27:47;;;;;;;;;;;;;;;;;;5113408;28;2059;-40
2023/04/22 07:30:14;;;;;;;;;;;;;;;;;;5113424;28;2092;-44
2023/04/22 07:32:41;;;;;;;;;;;;;;;;;;5113519;28;1995;-40
2023/04/22 07:35:09;;;;;;;;;;;;;;;;;;5113600;28;1960;-40
2023/04/22 07:37:36;;;;;;;;;;;;;;;;;;5113480;28;1984;-40
2023/04/22 07:40:04;;;;;;;;;;;;;;;;;;5113379;28;1986;-49
2023/04/22 07:42:31;;;;;;;;;;;;;;;;;;5113495;28;2012;-40
2023/04/22 07:44:59;;;;;;;;;;;;;;;;;;5113233;28;2063;-62
2023/04/22 07:47:26;;;;;;;;;;;;;;;;;;5103994;28;1943;-40
2023/04/22 07:49:54;;;;;;;;;;;;;;;;;;5092679;28;1955;-40
2023/04/22 07:52:21;;;;;;;;;;;;;;;;;;5092774;28;2201;-49
2023/04/22 07:54:48;;;;;;;;;;;;;;;;;;5092781;28;2071;-39
2023/04/22 07:57:15;;;;;;;;;;;;;;;;;;5092135;28;1953;-40
2023/04/22 07:59:43;;;;;;;;;;;;;;;;;;5092510;28;2001;-41
2023/04/22 08:02:10;;;;;;;;;;;;;;;;;;5092365;28;1790;-41
2023/04/22 08:04:37;;;;;;;;;;;;;;;;;;5092255;28;1906;-40
2023/04/22 08:07:05;;;;;;;;;;;;;;;;;;5092410;28;1975;-45
2023/04/22 08:09:52;;;;;;;;;;;;;;;;;;5077360;28;2419;-40
2023/04/22 08:12:19;;;;;;;;;;;;;;;;;;5092283;28;1785;-41
2023/04/22 08:14:46;;;;;;;;;;;;;;;;;;5092211;28;1894;-40
2023/04/22 08:17:13;;;;;;;;;;;;;;;;;;5092302;28;1882;-40
2023/04/22 08:19:40;;;;;;;;;;;;;;;;;;5092218;28;1962;-40
2023/04/22 08:22:08;;;;;;;;;;;;;;;;;;5092227;28;1898;-50
2023/04/22 08:24:35;;;;;;;;;;;;;;;;;;5074089;28;2058;-54
2023/04/22 08:27:02;;;;;;;;;;;;;;;;;;5091951;28;2073;-41
2023/04/22 08:29:29;;;;;;;;;;;;;;;;;;5091979;28;1834;-41
2023/04/22 08:31:56;;;;;;;;;;;;;;;;;;5091966;28;2249;-40
2023/04/22 08:34:25;;;;;;;;;;;;;;;;;;5091995;28;1986;-40
2023/04/22 08:36:52;;;;;;;;;;;;;;;;;;5091672;28;1747;-39
2023/04/22 08:39:19;;;;;;;;;;;;;;;;;;5091990;28;2022;-48
2023/04/22 08:41:48;;;;;;;;;;;;;;;;;;5091773;28;1907;-48
2023/04/22 08:44:15;;;;;;;;;;;;;;;;;;5091636;28;1954;-44
2023/04/22 08:46:45;;;;;;;;;;;;;;;;;;5094342;28;1999;-40
2023/04/22 08:49:14;;;;;;;;;;;;;;;;;;5111895;28;1994;-44
2023/04/22 08:51:41;;;;;;;;;;;;;;;;;;5112065;28;1940;-41
2023/04/22 08:54:09;;;;;;;;;;;;;;;;;;5112332;28;2010;-40
2023/04/22 08:56:40;;;;;;;;;;;;;;;;;;5112109;28;2187;-60
2023/04/22 08:59:08;;;;;;;;;;;;;;;;;;5112195;28;1773;-40
2023/04/22 09:01:37;;;;;;;;;;;;;;;;;;5112002;28;2055;-41
2023/04/22 09:04:05;;;;;;;;;;;;;;;;;;5111641;28;1983;-55
2023/04/22 09:06:32;;;;;;;;;;;;;;;;;;5109925;28;1993;-49
2023/04/22 09:09:00;;;;;;;;;;;;;;;;;;5111099;28;1818;-47
2023/04/22 09:11:28;;;;;;;;;;;;;;;;;;5111927;28;1946;-46
2023/04/22 09:13:55;;;;;;;;;;;;;;;;;;5111847;28;1978;-41
2023/04/22 09:16:22;;;;;;;;;;;;;;;;;;5111914;28;1988;-46
2023/04/22 09:18:49;;;;;;;;;;;;;;;;;;5111802;28;1967;-42
2023/04/22 09:21:16;;;;;;;;;;;;;;;;;;5111572;28;1906;-41
2023/04/22 09:23:53;;;;;;;;;;;;;;;;;;5111778;28;1965;-40
2023/04/22 09:26:22;;;;;;;;;;;;;;;;;;5111781;28;1972;-40
2023/04/22 09:28:53;;;;;;;;;;;;;;;;;;5111558;28;1870;-40
2023/04/22 09:31:22;;;;;;;;;;;;;;;;;;5111792;28;2014;-40
2023/04/22 09:33:54;;;;;;;;;;;;;;;;;;5111682;28;2056;-41
2023/04/22 09:36:22;;;;;;;;;;;;;;;;;;5111442;28;2113;-40
2023/04/22 09:38:53;;;;;;;;;;;;;;;;;;5111676;28;1930;-44
2023/04/22 09:41:31;;;;;;;;;;;;;;;;;;5111524;28;1910;-42
2023/04/22 09:43:59;;;;;;;;;;;;;;;;;;5111651;28;1811;-41
2023/04/22 09:46:27;;;;;;;;;;;;;;;;;;5110936;28;2106;-41
2023/04/22 09:48:55;;;;;;;;;;;;;;;;;;5090992;28;1916;-50
2023/04/22 09:51:22;;;;;;;;;;;;;;;;;;5090951;28;2134;-53
2023/04/22 09:54:16;;;;;;;;;;;;;;;;;;5090464;28;1964;-40
2023/04/22 09:56:43;;;;;;;;;;;;;;;;;;5087192;28;1880;-39
2023/04/22 09:59:11;;;;;;;;;;;;;;;;;;5087569;28;2055;-41
2023/04/22 10:01:52;;;;;;;;;;;;;;;;;;5098505;28;2033;-49
2023/04/22 10:04:21;;;;;;;;;;;;;;;;;;5092698;28;1981;-47
2023/04/22 10:06:49;;;;;;;;;;;;;;;;;;5111040;28;1982;-60
2023/04/22 10:09:18;;;;;;;;;;;;;;;;;;5110943;28;2007;-52
2023/04/22 10:11:46;;;;;;;;;;;;;;;;;;5110951;28;2083;-40
2023/04/22 10:14:13;;;;;;;;;;;;;;;;;;5111082;28;1969;-41
2023/04/22 10:16:42;;;;;;;;;;;;;;;;;;5111524;28;1989;-42
2023/04/22 10:19:12;;;;;;;;;;;;;;;;;;5112722;28;1782;-44
2023/04/22 10:21:40;;;;;;;;;;;;;;;;;;5114743;28;2110;-39
2023/04/22 10:24:13;;;;;;;;;;;;;;;;;;5114646;28;1877;-51
2023/04/22 10:26:52;;;;;;;;;;;;;;;;;;5114941;28;2045;-41
2023/04/22 10:29:34;;;;;;;;;;;;;;;;;;5114339;28;1814;-41
2023/04/22 10:32:01;;;;;;;;;;;;;;;;;;5114946;28;1913;-47
2023/04/22 10:34:31;;;;;;;;;;;;;;;;;;5114885;28;1917;-40
2023/04/22 10:37:06;;;;;;;;;;;;;;;;;;5114726;28;1985;-40
2023/04/22 10:39:33;;;;;;;;;;;;;;;;;;5114736;28;1816;-41
2023/04/22 10:42:05;;;;;;;;;;;;;;;;;;5114586;28;2122;-40
2023/04/22 10:44:45;;;;;;;;;;;;;;;;;;5114806;28;2045;-41
2023/04/22 10:47:23;;;;;;;;;;;;;;;;;;5113841;28;2162;-41
2023/04/22 10:49:50;;;;;;;;;;;;;;;;;;5114140;28;1872;-47
2023/04/22 10:52:35;;;;;;;;;;;;;;;;;;5114175;28;2070;-41
2023/04/22 10:55:03;;;;;;;;;;;;;;;;;;5095892;28;1965;-42
2023/04/22 10:57:40;;;;;;;;;;;;;;;;;;5093633;28;2181;-41
2023/04/22 11:00:33;;;;;;;;;;;;;;;;;;5093572;28;1786;-41
2023/04/22 11:03:13;;;;;;;;;;;;;;;;;;5093632;28;1879;-40
2023/04/22 11:05:40;;;;;;;;;;;;;;;;;;5093505;28;2257;-41
2023/04/22 11:08:11;;;;;;;;;;;;;;;;;;5093404;28;2027;-40
2023/04/22 11:10:41;;;;;;;;;;;;;;;;;;5093416;28;2034;-41
2023/04/22 11:13:13;;;;;;;;;;;;;;;;;;5093540;28;2089;-42
2023/04/22 11:15:41;;;;;;;;;;;;;;;;;;5093006;28;2131;-41
2023/04/22 11:18:28;;;;;;;;;;;;;;;;;;5093336;28;2017;-41
2023/04/22 11:20:56;;;;;;;;;;;;;;;;;;5092710;28;2014;-41
2023/04/22 11:23:24;;;;;;;;;;;;;;;;;;5093336;28;2071;-41
2023/04/22 11:25:56;;;;;;;;;;;;;;;;;;5093129;28;1736;-40
2023/04/22 11:28:23;;;;;;;;;;;;;;;;;;5092916;28;2066;-45
2023/04/22 11:30:52;;;;;;;;;;;;;;;;;;5092319;28;1940;-44
2023/04/22 11:33:19;;;;;;;;;;;;;;;;;;5093075;28;2180;-41
2023/04/22 11:35:48;;;;;;;;;;;;;;;;;;5093084;28;1913;-40
2023/04/22 11:38:15;;;;;;;;;;;;;;;;;;5092991;28;2049;-42
2023/04/22 11:40:44;;;;;;;;;;;;;;;;;;5092756;28;1849;-41
2023/04/22 11:43:13;;;;;;;;;;;;;;;;;;5092699;28;1857;-41
2023/04/22 11:45:40;;;;;;;;;;;;;;;;;;5092310;28;2049;-40
2023/04/22 11:48:08;;;;;;;;;;;;;;;;;;5093007;28;1918;-47
2023/04/22 11:50:35;;;;;;;;;;;;;;;;;;5092807;28;2156;-60
2023/04/22 11:53:04;;;;;;;;;;;;;;;;;;5092767;28;1921;-42
2023/04/22 11:55:32;;;;;;;;;;;;;;;;;;5092693;28;1833;-51
2023/04/22 11:58:00;;;;;;;;;;;;;;;;;;5092345;28;2009;-41
2023/04/22 12:00:28;;;;;;;;;;;;;;;;;;5092271;28;1896;-41
2023/04/22 12:02:59;;;;;;;;;;;;;;;;;;5092369;28;2081;-41
2023/04/22 12:05:45;;;;;;;;;;;;;;;;;;5092484;28;2010;-40
2023/04/22 12:08:13;;;;;;;;;;;;;;;;;;5092294;28;2071;-58
2023/04/22 12:10:45;;;;;;;;;;;;;;;;;;5092163;28;1617;-40
2023/04/22 12:13:19;;;;;;;;;;;;;;;;;;5092087;28;1982;-41
2023/04/22 12:15:47;;;;;;;;;;;;;;;;;;5092191;28;1831;-41
2023/04/22 12:18:14;;;;;;;;;;;;;;;;;;5092492;28;2091;-44
2023/04/22 12:20:41;;;;;;;;;;;;;;;;;;5092103;28;2444;-40
2023/04/22 12:23:13;;;;;;;;;;;;;;;;;;5092221;28;2065;-40
2023/04/22 12:25:40;;;;;;;;;;;;;;;;;;5092059;28;2153;-41
2023/04/22 12:28:08;;;;;;;;;;;;;;;;;;5092291;28;2293;-40
2023/04/22 12:30:38;;;;;;;;;;;;;;;;;;5091960;28;2209;-41
2023/04/22 12:33:05;;;;;;;;;;;;;;;;;;5092054;28;2122;-40
2023/04/22 12:35:32;;;;;;;;;;;;;;;;;;5073464;28;2030;-41
2023/04/22 12:38:00;;;;;;;;;;;;;;;;;;5091692;28;2032;-39
2023/04/22 12:40:28;;;;;;;;;;;;;;;;;;5091550;28;1859;-41
2023/04/22 12:42:55;;;;;;;;;;;;;;;;;;5090528;28;2099;-39
2023/04/22 12:45:22;;;;;;;;;;;;;;;;;;5091768;28;2105;-41
2023/04/22 12:47:52;;;;;;;;;;;;;;;;;;5091492;28;2172;-41
2023/04/22 12:50:19;;;;;;;;;;;;;;;;;;5091644;28;1889;-41
2023/04/22 12:52:47;;;;;;;;;;;;;;;;;;5091530;28;1861;-43
2023/04/22 12:55:14;;;;;;;;;;;;;;;;;;5111529;28;2185;-43
2023/04/22 12:57:42;;;;;;;;;;;;;;;;;;5112230;28;1977;-43
2023/04/22 13:00:15;;;;;;;;;;;;;;;;;;5094213;28;1986;-42
2023/04/22 13:02:43;;;;;;;;;;;;;;;;;;5111976;28;1864;-41
2023/04/22 13:05:11;;;;;;;;;;;;;;;;;;5111887;28;1987;-41
2023/04/22 13:07:39;;;;;;;;;;;;;;;;;;5111921;28;1980;-41
2023/04/22 13:10:07;;;;;;;;;;;;;;;;;;5111735;28;1959;-41
2023/04/22 13:12:34;;;;;;;;;;;;;;;;;;5111839;28;1998;-48
2023/04/22 13:15:05;;;;;;;;;;;;;;;;;;5111637;28;2014;-41
2023/04/22 13:17:33;;;;;;;;;;;;;;;;;;5111525;28;2030;-41
2023/04/22 13:20:00;;;;;;;;;;;;;;;;;;5111881;28;1996;-45
2023/04/22 13:22:27;;;;;;;;;;;;;;;;;;5111540;28;1864;-40
2023/04/22 13:24:54;;;;;;;;;;;;;;;;;;5110567;28;2077;-39
2023/04/22 13:27:24;;;;;;;;;;;;;;;;;;5111470;28;2049;-40
2023/04/22 13:29:51;;;;;;;;;;;;;;;;;;5111311;28;1951;-38
2023/04/22 13:32:18;;;;;;;;;;;;;;;;;;5111621;28;2093;-40
2023/04/22 13:34:47;;;;;;;;;;;;;;;;;;5111613;28;1752;-38
2023/04/22 13:37:17;;;;;;;;;;;;;;;;;;5111246;28;2955;-39
2023/04/22 13:39:45;;;;;;;;;;;;;;;;;;5111436;28;1865;-41
2023/04/22 13:42:13;;;;;;;;;;;;;;;;;;5111311;28;1749;-43
2023/04/22 13:44:40;;;;;;;;;;;;;;;;;;5111624;28;1917;-53
2023/04/22 13:47:07;;;;;;;;;;;;;;;;;;5111051;28;1935;-44
2023/04/22 13:49:34;;;;;;;;;;;;;;;;;;5111039;28;1891;-45
2023/04/22 13:52:02;;;;;;;;;;;;;;;;;;5111262;28;2215;-40
2023/04/22 13:54:30;;;;;;;;;;;;;;;;;;5099793;28;2078;-41
2023/04/22 13:56:57;;;;;;;;;;;;;;;;;;5094573;28;2022;-42
2023/04/22 13:59:24;;;;;;;;;;;;;;;;;;5094701;28;2010;-40
2023/04/22 14:01:51;;;;;;;;;;;;;;;;;;5094522;28;2004;-41
2023/04/22 14:04:18;;;;;;;;;;;;;;;;;;5094542;28;2235;-40
2023/04/22 14:06:45;;;;;;;;;;;;;;;;;;5094833;28;1881;-37
2023/04/22 14:09:13;;;;;;;;;;;;;;;;;;5094570;28;1962;-42
2023/04/22 14:11:40;;;;;;;;;;;;;;;;;;5094586;28;1905;-39
2023/04/22 14:14:07;;;;;;;;;;;;;;;;;;5094667;28;2003;-41
2023/04/22 14:16:34;;;;;;;;;;;;;;;;;;5094374;28;1993;-41
2023/04/22 14:19:04;;;;;;;;;;;;;;;;;;5094383;28;1921;-38
2023/04/22 14:21:34;;;;;;;;;;;;;;;;;;5094277;28;2116;-43
2023/04/22 14:24:02;;;;;;;;;;;;;;;;;;5076022;28;2123;-38
2023/04/22 14:26:31;;;;;;;;;;;;;;;;;;5109489;28;2005;-42
2023/04/22 14:28:58;;;;;;;;;;;;;;;;;;5114785;28;1980;-41
2023/04/22 14:31:25;;;;;;;;;;;;;;;;;;5114424;28;2147;-41
2023/04/22 14:33:56;;;;;;;;;;;;;;;;;;5114527;28;1877;-38
2023/04/22 14:36:26;;;;;;;;;;;;;;;;;;5114322;28;1934;-44
2023/04/22 14:38:53;;;;;;;;;;;;;;;;;;5114585;28;2032;-38
2023/04/22 14:41:22;;;;;;;;;;;;;;;;;;5114613;28;2161;-41
2023/04/22 14:43:49;;;;;;;;;;;;;;;;;;5114403;28;2184;-42
2023/04/22 14:46:17;;;;;;;;;;;;;;;;;;5114279;28;1989;-47
2023/04/22 14:48:44;;;;;;;;;;;;;;;;;;5114383;28;2108;-41
2023/04/22 14:51:11;;;;;;;;;;;;;;;;;;5114119;28;1929;-42
2023/04/22 14:53:40;;;;;;;;;;;;;;;;;;5089147;28;2045;-41
2023/04/22 14:56:07;;;;;;;;;;;;;;;;;;5093833;28;2155;-46
2023/04/22 14:58:34;;;;;;;;;;;;;;;;;;5093520;28;2045;-58
2023/04/22 15:01:01;;;;;;;;;;;;;;;;;;5093666;28;1965;-41
2023/04/22 15:03:29;;;;;;;;;;;;;;;;;;5093440;28;2029;-40
2023/04/22 15:05:56;;;;;;;;;;;;;;;;;;5092599;28;1917;-48
2023/04/22 15:08:24;;;;;;;;;;;;;;;;;;5093162;28;2036;-40
2023/04/22 15:10:51;;;;;;;;;;;;;;;;;;5093524;28;2140;-40
2023/04/22 15:13:18;;;;;;;;;;;;;;;;;;5093476;28;2160;-59
2023/04/22 15:15:46;;;;;;;;;;;;;;;;;;5093485;28;2000;-41
2023/04/22 15:18:13;;;;;;;;;;;;;;;;;;5105032;27;1966;-40
2023/04/22 15:20:40;;;;;;;;;;;;;;;;;;5134150;27;2157;-57
2023/04/22 15:23:07;;;;;;;;;;;;;;;;;;5134109;27;2010;-40
2023/04/22 15:25:36;;;;;;;;;;;;;;;;;;5133999;27;1982;-38
2023/04/22 15:28:08;;;;;;;;;;;;;;;;;;5134048;27;1886;-41
2023/04/22 15:30:35;;;;;;;;;;;;;;;;;;5133501;27;1925;-41
2023/04/22 15:33:03;;;;;;;;;;;;;;;;;;5133790;27;2123;-40
2023/04/22 15:35:30;;;;;;;;;;;;;;;;;;5133932;27;2048;-41
2023/04/22 15:37:58;;;;;;;;;;;;;;;;;;5133639;27;2084;-41
2023/04/22 15:40:25;;;;;;;;;;;;;;;;;;5133873;27;1976;-46
2023/04/22 15:42:52;;;;;;;;;;;;;;;;;;5134027;27;2053;-41
2023/04/22 15:45:19;;;;;;;;;;;;;;;;;;5133807;27;1893;-41
2023/04/22 15:47:46;;;;;;;;;;;;;;;;;;5120391;27;2070;-42
2023/04/22 15:50:13;;;;;;;;;;;;;;;;;;5112937;28;2215;-57
2023/04/22 15:52:40;;;;;;;;;;;;;;;;;;5094459;28;2616;-40
2023/04/22 15:55:08;;;;;;;;;;;;;;;;;;5093652;28;2070;-48
2023/04/22 15:57:37;;;;;;;;;;;;;;;;;;5092370;28;1963;-42
2023/04/22 16:00:07;;;;;;;;;;;;;;;;;;5092822;28;1910;-47
2023/04/22 16:02:42;;;;;;;;;;;;;;;;;;5092340;28;1933;-42
2023/04/22 16:05:10;;;;;;;;;;;;;;;;;;5092869;28;1888;-50
2023/04/22 16:07:37;;;;;;;;;;;;;;;;;;5092361;28;1922;-42
2023/04/22 16:10:06;;;;;;;;;;;;;;;;;;5092258;28;1800;-37
2023/04/22 16:12:35;;;;;;;;;;;;;;;;;;5092366;28;1589;-38
2023/04/22 16:15:07;;;;;;;;;;;;;;;;;;5115930;27;1904;-37
2023/04/22 16:17:35;;;;;;;;;;;;;;;;;;5132745;27;2224;-41
2023/04/22 16:20:04;;;;;;;;;;;;;;;;;;5132912;27;2154;-56
2023/04/22 16:22:33;;;;;;;;;;;;;;;;;;5114594;27;2553;-55
2023/04/22 16:25:01;;;;;;;;;;;;;;;;;;5132795;27;2061;-52
2023/04/22 16:27:29;;;;;;;;;;;;;;;;;;5132933;27;2006;-41
2023/04/22 16:29:56;;;;;;;;;;;;;;;;;;5132863;27;1888;-41
2023/04/22 16:32:23;;;;;;;;;;;;;;;;;;5131751;27;1816;-43
2023/04/22 16:34:50;;;;;;;;;;;;;;;;;;5132599;27;1945;-47
2023/04/22 16:37:18;;;;;;;;;;;;;;;;;;5132550;27;1996;-41
2023/04/22 16:39:45;;;;;;;;;;;;;;;;;;5132587;27;2000;-41
2023/04/22 16:42:12;;;;;;;;;;;;;;;;;;5132409;27;1983;-42
2023/04/22 16:44:39;;;;;;;;;;;;;;;;;;5132682;27;2128;-40
2023/04/22 16:47:06;;;;;;;;;;;;;;;;;;5132295;27;1891;-41
2023/04/22 16:49:34;;;;;;;;;;;;;;;;;;5132374;27;2107;-41
2023/04/22 16:52:01;;;;;;;;;;;;;;;;;;5131980;27;1878;-40
2023/04/22 16:54:28;;;;;;;;;;;;;;;;;;5118653;27;2075;-40
2023/04/22 16:56:56;;;;;;;;;;;;;;;;;;5112259;28;1934;-41
2023/04/22 16:59:23;;;;;;;;;;;;;;;;;;5112048;28;2252;-41
2023/04/22 17:01:50;;;;;;;;;;;;;;;;;;5111756;28;2021;-50
2023/04/22 17:04:18;;;;;;;;;;;;;;;;;;5111519;28;1884;-41
2023/04/22 17:06:45;;;;;;;;;;;;;;;;;;5111484;28;2142;-41
2023/04/22 17:09:12;;;;;;;;;;;;;;;;;;5111571;28;1982;-41
2023/04/22 17:11:39;;;;;;;;;;;;;;;;;;5111513;28;1769;-50
2023/04/22 17:14:06;;;;;;;;;;;;;;;;;;5111546;28;2131;-41